Time;durP1;ratioP1;P1;durP2;ratioP2;P2;SDS_P1;SDS_P2;PMS_P1;PMS_P2;Temp;Humidity;BMP_temperature;BMP_pressure;BME280_temperature;BME280_humidity;BME280_pressure;Samples;Min_cycle;Max_cycle;Signal;HPM_P1;HPM_P2
2021/04/19 10:11:35;;;;;;;28.67;15.80;;;11.80;87.50;;;;;;12262948;27;20364;-72
2021/04/19 10:17:27;;;;;;;29.27;15.40;;;12.30;85.40;;;;;;12246875;27;20406;-72
2021/04/19 10:23:14;;;;;;;33.00;15.48;;;13.00;82.20;;;;;;12243746;27;20806;-73
2021/04/19 10:29:14;;;;;;;91.50;47.95;;;13.50;80.80;;;;;;12239632;27;20118;-76
2021/04/19 10:35:00;;;;;;;31.20;15.25;;;13.80;78.70;;;;;;12239320;27;20042;-74
2021/04/19 10:40:57;;;;;;;31.17;16.95;;;14.10;78.80;;;;;;12235298;27;20055;-75
2021/04/19 10:46:45;;;;;;;32.42;16.20;;;14.20;76.80;;;;;;12227143;27;20054;-76
2021/04/19 10:52:31;;;;;;;22.60;13.38;;;14.40;76.40;;;;;;12240455;27;20051;-76
2021/04/19 10:58:20;;;;;;;24.48;13.88;;;14.50;75.40;;;;;;12243798;27;20470;-75
2021/04/19 11:04:09;;;;;;;29.63;13.80;;;14.60;72.60;;;;;;12239261;27;20050;-77
2021/04/19 11:10:13;;;;;;;25.13;12.95;;;14.80;72.20;;;;;;12243163;27;20055;-76
2021/04/19 11:15:59;;;;;;;21.67;12.05;;;14.60;71.50;;;;;;12247780;27;20158;-77
2021/04/19 11:21:47;;;;;;;24.77;11.98;;;14.80;71.40;;;;;;12216785;27;20062;-76
2021/04/19 11:27:34;;;;;;;23.15;11.77;;;15.00;71.00;;;;;;12216964;27;20089;-78
2021/04/19 11:33:23;;;;;;;20.67;10.68;;;15.30;70.50;;;;;;12217019;27;20059;-78
2021/04/19 11:39:23;;;;;;;20.77;12.20;;;15.50;70.20;;;;;;12215686;27;20162;-79
2021/04/19 11:45:21;;;;;;;18.38;10.90;;;15.50;68.30;;;;;;12213439;27;20058;-78
2021/04/19 11:51:12;;;;;;;20.20;10.93;;;15.70;69.20;;;;;;12226916;27;20058;-79
2021/04/19 11:56:59;;;;;;;22.10;11.38;;;16.00;67.50;;;;;;12213346;27;20043;-78
2021/04/19 12:02:46;;;;;;;22.00;11.82;;;15.90;68.90;;;;;;12223902;27;20107;-78
2021/04/19 12:08:32;;;;;;;21.40;11.35;;;16.00;66.40;;;;;;12206130;27;20047;-78
2021/04/19 12:14:20;;;;;;;22.42;11.55;;;16.10;66.70;;;;;;12193270;27;20619;-78
2021/04/19 12:20:07;;;;;;;21.02;11.23;;;16.20;65.70;;;;;;12204315;27;20050;-79
2021/04/19 12:25:57;;;;;;;20.73;11.48;;;16.20;64.80;;;;;;12203972;27;20043;-77
2021/04/19 12:31:44;;;;;;;19.95;11.15;;;16.40;65.00;;;;;;12201339;27;20055;-73
2021/04/19 12:37:30;;;;;;;22.40;11.55;;;16.70;65.60;;;;;;12203588;27;20076;-78
2021/04/19 12:43:17;;;;;;;22.27;11.65;;;16.90;63.40;;;;;;12207874;27;20042;-77
2021/04/19 12:49:04;;;;;;;22.58;11.38;;;17.10;64.60;;;;;;12193974;27;20513;-77
2021/04/19 12:54:51;;;;;;;26.77;12.50;;;17.40;61.90;;;;;;12198503;27;20058;-77
2021/04/19 13:00:37;;;;;;;24.30;11.23;;;17.50;63.60;;;;;;12196443;27;20051;-76
2021/04/19 13:06:25;;;;;;;23.35;10.70;;;17.30;62.70;;;;;;12199643;27;20047;-77
2021/04/19 13:12:13;;;;;;;21.13;10.40;;;17.40;62.60;;;;;;12198267;27;20178;-73
2021/04/19 13:17:59;;;;;;;21.55;11.43;;;17.60;62.30;;;;;;12204073;27;20043;-73
2021/04/19 13:23:46;;;;;;;17.45;9.52;;;17.70;61.00;;;;;;12199401;27;20055;-73
2021/04/19 13:29:33;;;;;;;19.38;10.15;;;18.10;60.40;;;;;;12196066;27;20046;-76
2021/04/19 13:35:20;;;;;;;19.10;9.60;;;18.40;60.50;;;;;;12197921;27;20119;-77
2021/04/19 13:41:10;;;;;;;14.75;8.63;;;18.30;59.20;;;;;;12198643;27;20053;-76
2021/04/19 13:46:56;;;;;;;16.88;9.18;;;18.50;59.40;;;;;;12197924;27;20047;-78
2021/04/19 13:52:44;;;;;;;15.23;7.80;;;18.50;57.10;;;;;;12203046;27;20079;-77
2021/04/19 13:58:33;;;;;;;18.40;8.32;;;18.70;57.90;;;;;;12205779;27;20404;-77
2021/04/19 14:04:19;;;;;;;16.55;9.00;;;19.10;57.10;;;;;;12203981;27;20070;-77
2021/04/19 14:10:09;;;;;;;13.95;7.28;;;19.40;56.70;;;;;;12209800;27;20093;-74
2021/04/19 14:15:57;;;;;;;11.30;7.80;;;19.50;56.30;;;;;;12208736;27;20058;-74
2021/04/19 14:21:43;;;;;;;15.98;8.73;;;19.60;55.60;;;;;;12206513;27;20587;-75
2021/04/19 14:27:30;;;;;;;15.77;6.90;;;19.60;54.70;;;;;;12197557;27;20156;-72
2021/04/19 14:33:17;;;;;;;16.67;8.02;;;19.90;55.80;;;;;;12203788;27;20505;-73
2021/04/19 14:39:05;;;;;;;20.48;8.32;;;19.90;53.80;;;;;;12199247;27;20055;-75
2021/04/19 14:44:51;;;;;;;14.63;7.30;;;19.90;53.20;;;;;;12205151;27;20058;-75
2021/04/19 14:50:39;;;;;;;11.90;7.55;;;20.10;53.80;;;;;;12198891;27;20053;-81
2021/04/19 14:56:25;;;;;;;21.27;10.82;;;20.30;54.00;;;;;;12205147;27;20057;-74
2021/04/19 15:02:13;;;;;;;16.73;6.97;;;20.30;53.20;;;;;;12212127;27;20478;-73
2021/04/19 15:08:00;;;;;;;17.83;7.38;;;20.40;52.70;;;;;;12233476;27;20126;-75
2021/04/19 15:13:46;;;;;;;14.05;6.70;;;20.20;51.90;;;;;;12215065;27;20055;-74
2021/04/19 15:19:33;;;;;;;12.93;6.00;;;20.10;52.60;;;;;;12211286;27;20047;-75
2021/04/19 15:25:21;;;;;;;15.43;6.38;;;20.30;53.20;;;;;;12203008;27;20066;-73
2021/04/19 15:31:07;;;;;;;17.42;6.82;;;20.40;52.60;;;;;;12213676;27;20058;-74
2021/04/19 15:36:55;;;;;;;14.20;6.40;;;20.50;51.80;;;;;;12209612;27;20494;-74
2021/04/19 15:42:43;;;;;;;14.98;6.72;;;20.40;50.70;;;;;;12200103;27;20454;-74
2021/04/19 15:48:30;;;;;;;12.75;5.90;;;20.50;51.80;;;;;;12206135;27;22078;-74
2021/04/19 15:54:16;;;;;;;13.98;6.30;;;20.80;50.60;;;;;;12202905;27;20492;-73
2021/04/19 16:00:05;;;;;;;14.07;6.78;;;20.70;51.20;;;;;;12208030;27;20054;-73
2021/04/19 16:05:51;;;;;;;11.45;6.07;;;21.00;51.10;;;;;;12198911;27;22285;-77
2021/04/19 16:11:38;;;;;;;12.95;6.00;;;21.00;51.20;;;;;;12210690;27;20046;-73
2021/04/19 16:17:25;;;;;;;8.48;5.75;;;21.60;50.20;;;;;;12208149;27;20130;-73
2021/04/19 16:23:14;;;;;;;18.13;6.93;;;24.00;45.70;;;;;;12213380;27;20054;-74
2021/04/19 16:29:00;;;;;;;13.57;5.88;;;26.50;42.00;;;;;;12209588;27;20043;-73
2021/04/19 16:34:47;;;;;;;10.73;6.53;;;28.50;39.80;;;;;;12204519;27;20059;-73
2021/04/19 16:40:34;;;;;;;11.45;5.95;;;30.00;37.20;;;;;;12207696;27;20043;-73
2021/04/19 16:46:21;;;;;;;9.85;5.95;;;30.60;35.50;;;;;;12212284;27;20062;-72
2021/04/19 16:52:08;;;;;;;9.30;5.72;;;30.90;34.90;;;;;;12199171;27;20059;-73
2021/04/19 16:57:54;;;;;;;10.35;5.50;;;31.10;34.40;;;;;;12203858;27;20047;-72
2021/04/19 17:03:41;;;;;;;16.13;5.93;;;31.20;34.10;;;;;;12202816;27;20418;-73
2021/04/19 17:09:31;;;;;;;11.40;5.55;;;30.40;33.70;;;;;;12204900;27;20051;-73
2021/04/19 17:15:18;;;;;;;12.27;5.68;;;27.00;37.90;;;;;;12201951;27;20054;-74
2021/04/19 17:21:05;;;;;;;15.35;6.28;;;26.00;39.20;;;;;;12202818;27;20043;-73
2021/04/19 17:26:52;;;;;;;9.98;5.60;;;27.50;37.60;;;;;;12203185;27;20404;-72
2021/04/19 17:32:39;;;;;;;12.00;5.60;;;28.70;36.20;;;;;;12204791;27;20073;-72
2021/04/19 17:38:25;;;;;;;11.75;5.20;;;28.80;35.10;;;;;;12203652;27;20753;-72
2021/04/19 17:44:12;;;;;;;11.73;4.72;;;27.80;36.30;;;;;;12200034;27;20050;-72
2021/04/19 17:50:00;;;;;;;10.48;5.18;;;26.80;37.00;;;;;;12206683;27;20050;-72
2021/04/19 17:55:46;;;;;;;10.85;5.00;;;25.20;39.20;;;;;;12201917;27;21333;-72
2021/04/19 18:01:33;;;;;;;10.68;4.93;;;23.20;42.70;;;;;;12206495;27;20503;-72
2021/04/19 18:07:20;;;;;;;23.38;13.77;;;21.60;45.50;;;;;;12188106;27;20066;-71
2021/04/19 18:13:06;;;;;;;14.05;7.15;;;20.70;47.50;;;;;;12195251;27;20786;-72
2021/04/19 18:18:54;;;;;;;14.48;7.20;;;20.00;48.50;;;;;;12197860;27;20043;-72
2021/04/19 18:24:40;;;;;;;11.18;4.53;;;19.60;49.60;;;;;;12200462;27;20051;-72
2021/04/19 18:30:27;;;;;;;11.63;4.07;;;19.20;50.70;;;;;;12198403;27;20043;-73
2021/04/19 18:36:16;;;;;;;9.10;3.72;;;18.90;53.50;;;;;;12197936;27;20459;-70
2021/04/19 18:42:03;;;;;;;11.00;3.80;;;18.70;54.90;;;;;;12207001;27;20058;-72
2021/04/19 18:47:49;;;;;;;8.65;4.03;;;18.40;55.60;;;;;;12204315;27;20055;-72
2021/04/19 18:53:37;;;;;;;11.40;3.00;;;18.10;56.50;;;;;;12221324;27;20433;-71
2021/04/19 18:59:23;;;;;;;8.25;2.90;;;17.80;57.30;;;;;;12207277;27;20047;-71
2021/04/19 19:05:12;;;;;;;9.95;4.00;;;17.50;57.60;;;;;;12205270;27;20052;-71
2021/04/19 19:11:02;;;;;;;12.07;3.53;;;17.10;58.10;;;;;;12202520;27;20059;-72
2021/04/19 19:16:48;;;;;;;5.90;3.53;;;16.90;58.30;;;;;;12208125;27;20122;-72
2021/04/19 19:22:35;;;;;;;9.95;3.58;;;16.70;59.40;;;;;;12205517;27;20051;-71
2021/04/19 19:28:22;;;;;;;6.38;3.92;;;16.60;59.70;;;;;;12205857;27;20051;-72
2021/04/19 19:34:08;;;;;;;11.43;3.55;;;16.50;60.50;;;;;;12203450;27;20513;-73
2021/04/19 19:39:55;;;;;;;8.50;3.72;;;16.40;60.80;;;;;;12212017;27;20118;-72
2021/04/19 19:45:42;;;;;;;11.23;3.35;;;16.30;60.30;;;;;;12206519;27;20051;-72
2021/04/19 19:51:29;;;;;;;7.70;3.10;;;16.20;60.20;;;;;;12205021;27;20050;-70
2021/04/19 19:57:15;;;;;;;9.05;3.60;;;16.10;61.30;;;;;;12208979;27;20043;-72
2021/04/19 20:03:03;;;;;;;7.10;3.28;;;16.00;61.80;;;;;;12207259;27;20643;-72
2021/04/19 20:08:49;;;;;;;9.48;3.90;;;15.90;62.40;;;;;;12196037;27;20042;-72
2021/04/19 20:14:36;;;;;;;7.30;3.40;;;15.80;62.70;;;;;;12201842;27;20058;-69
2021/04/19 20:20:24;;;;;;;11.75;5.80;;;15.70;63.60;;;;;;12199078;27;20107;-72
2021/04/19 20:26:13;;;;;;;19.75;9.35;;;15.70;64.00;;;;;;12203350;27;20123;-72
2021/04/19 20:31:59;;;;;;;11.30;3.95;;;15.70;64.20;;;;;;12200750;27;20119;-71
2021/04/19 20:37:46;;;;;;;9.93;4.35;;;15.60;64.30;;;;;;12197710;27;20059;-70
2021/04/19 20:43:33;;;;;;;8.77;4.50;;;15.60;65.00;;;;;;12197350;27;20041;-70
2021/04/19 20:49:19;;;;;;;11.55;4.38;;;15.60;65.80;;;;;;12207718;27;20039;-71
2021/04/19 20:55:08;;;;;;;10.75;4.30;;;15.50;65.70;;;;;;12200284;27;20062;-71
2021/04/19 21:00:54;;;;;;;14.88;5.25;;;15.50;65.40;;;;;;12205778;27;20046;-71
2021/04/19 21:06:41;;;;;;;10.20;5.28;;;15.40;66.20;;;;;;12204121;27;20515;-70
2021/04/19 21:12:28;;;;;;;8.32;5.03;;;15.40;66.20;;;;;;12196762;27;20047;-71
2021/04/19 21:18:16;;;;;;;12.18;4.93;;;15.30;66.70;;;;;;12207291;27;20429;-72
2021/04/19 21:24:03;;;;;;;11.52;4.75;;;15.30;67.00;;;;;;12197081;27;20050;-71
2021/04/19 21:29:50;;;;;;;16.98;6.15;;;15.30;67.30;;;;;;12201588;27;20071;-71
2021/04/19 21:35:37;;;;;;;17.25;6.50;;;15.20;67.50;;;;;;12195841;27;20051;-71
2021/04/19 21:41:24;;;;;;;13.80;5.45;;;15.10;67.90;;;;;;12203853;27;20051;-71
2021/04/19 21:47:12;;;;;;;15.80;5.18;;;15.00;68.40;;;;;;12206672;27;20047;-71
2021/04/19 21:52:59;;;;;;;14.30;6.15;;;14.80;68.30;;;;;;12210460;27;20051;-71
2021/04/19 21:58:46;;;;;;;11.52;5.80;;;14.70;69.00;;;;;;12209447;27;20145;-70
2021/04/19 22:04:33;;;;;;;12.20;5.82;;;14.70;69.30;;;;;;12207285;27;20075;-70
2021/04/19 22:10:19;;;;;;;13.35;6.72;;;14.70;69.50;;;;;;12205594;27;20055;-70
2021/04/19 22:16:06;;;;;;;15.23;6.40;;;14.60;69.40;;;;;;12202306;27;20051;-70
2021/04/19 22:21:53;;;;;;;17.50;6.15;;;14.60;69.80;;;;;;12203635;27;20047;-69
2021/04/19 22:27:40;;;;;;;15.68;6.85;;;14.50;69.60;;;;;;12209173;27;20416;-69
2021/04/19 22:33:26;;;;;;;11.68;6.18;;;14.50;69.70;;;;;;12206623;27;20043;-69
2021/04/19 22:39:13;;;;;;;16.98;5.88;;;14.40;70.00;;;;;;12205416;27;20043;-69
2021/04/19 22:45:00;;;;;;;16.05;6.53;;;14.40;70.30;;;;;;12201697;27;20047;-70
2021/04/19 22:50:46;;;;;;;13.63;6.90;;;14.20;70.50;;;;;;12211480;27;20108;-69
2021/04/19 22:56:33;;;;;;;11.57;6.25;;;14.10;70.50;;;;;;12212963;27;20091;-70
2021/04/19 23:02:20;;;;;;;16.13;6.95;;;14.10;70.70;;;;;;12207097;27;20059;-69
2021/04/19 23:14:41;;;;;;;10.63;6.60;;;14.00;70.80;;;;;;11876927;28;20053;-70
2021/04/19 23:20:28;;;;;;;14.52;7.07;;;14.00;70.60;;;;;;11892652;28;20050;-70
2021/04/19 23:26:14;;;;;;;17.52;6.97;;;14.00;70.70;;;;;;11896505;28;20419;-70
2021/04/19 23:32:01;;;;;;;15.00;7.03;;;13.90;71.10;;;;;;11891956;28;20058;-70
2021/04/19 23:37:48;;;;;;;14.73;6.90;;;13.80;71.40;;;;;;11896190;28;20053;-70
2021/04/19 23:43:34;;;;;;;13.38;6.72;;;13.80;71.70;;;;;;11895727;28;20135;-69
2021/04/19 23:49:21;;;;;;;15.13;6.88;;;13.80;71.70;;;;;;11897822;28;20049;-73
2021/04/19 23:55:09;;;;;;;15.05;7.30;;;13.60;72.10;;;;;;11887832;28;20054;-72
